createdAt,value
2018-10-03T00:00:46.052Z,9.40
2018-10-03T00:03:13.441Z,9.40
2018-10-03T00:05:40.965Z,9.40
2018-10-03T00:08:08.586Z,9.40
2018-10-03T00:10:36.068Z,9.40
2018-10-03T00:13:03.951Z,9.30
2018-10-03T00:15:31.439Z,9.30
2018-10-03T00:17:58.969Z,9.30
2018-10-03T00:20:26.439Z,9.40
2018-10-03T00:22:53.964Z,9.40
2018-10-03T00:25:21.448Z,9.30
2018-10-03T00:27:48.959Z,9.30
2018-10-03T00:30:16.446Z,9.30
2018-10-03T00:32:44.024Z,9.30
2018-10-03T00:35:11.402Z,9.30
2018-10-03T00:37:39.683Z,9.20
2018-10-03T00:40:07.155Z,9.20
2018-10-03T00:42:34.520Z,9.10
2018-10-03T00:45:01.923Z,9.00
2018-10-03T00:47:29.259Z,9.00
2018-10-03T00:49:56.655Z,8.90
2018-10-03T00:52:24.010Z,8.80
2018-10-03T00:54:51.530Z,8.80
2018-10-03T00:57:18.929Z,8.70
2018-10-03T00:59:46.315Z,8.70
2018-10-03T01:02:13.990Z,8.70
2018-10-03T01:04:41.464Z,8.60
2018-10-03T01:07:08.962Z,8.60
2018-10-03T01:09:36.403Z,8.60
2018-10-03T01:12:03.765Z,8.60
2018-10-03T01:14:31.137Z,8.60
2018-10-03T01:16:58.491Z,8.60
2018-10-03T01:19:25.857Z,8.60
2018-10-03T01:21:53.226Z,8.60
2018-10-03T01:24:20.607Z,8.70
2018-10-03T01:26:48.043Z,8.70
2018-10-03T01:29:16.165Z,8.80
2018-10-03T01:31:43.682Z,8.80
2018-10-03T01:34:11.150Z,8.90
2018-10-03T01:36:38.624Z,8.90
2018-10-03T01:39:14.432Z,8.90
2018-10-03T01:41:41.983Z,8.80
2018-10-03T01:44:09.431Z,8.90
2018-10-03T01:46:36.918Z,8.90
2018-10-03T01:49:04.237Z,8.90
2018-10-03T01:51:31.655Z,8.90
2018-10-03T01:53:58.999Z,8.90
2018-10-03T01:56:26.462Z,8.90
2018-10-03T01:58:53.814Z,8.90
2018-10-03T02:01:21.233Z,8.90
2018-10-03T02:03:48.655Z,8.90
2018-10-03T02:06:16.520Z,8.90
2018-10-03T02:08:43.987Z,9.00
2018-10-03T02:11:11.491Z,9.00
2018-10-03T02:13:39.050Z,9.10
2018-10-03T02:16:06.541Z,9.20
2018-10-03T02:18:33.982Z,9.20
2018-10-03T02:21:01.348Z,9.20
2018-10-03T02:23:28.783Z,9.20
2018-10-03T02:25:56.130Z,9.20
2018-10-03T02:28:23.438Z,9.10
2018-10-03T02:30:50.772Z,9.00
2018-10-03T02:33:18.175Z,9.00
2018-10-03T02:35:45.583Z,9.00
2018-10-03T02:38:13.083Z,9.00
2018-10-03T02:40:40.517Z,9.00
2018-10-03T02:43:07.933Z,9.00
2018-10-03T02:45:35.381Z,9.00
2018-10-03T02:48:02.812Z,9.00
2018-10-03T02:50:30.324Z,8.90
2018-10-03T02:52:57.750Z,8.90
2018-10-03T02:55:25.140Z,8.90
2018-10-03T02:57:52.479Z,8.90
2018-10-03T03:00:19.941Z,8.90
2018-10-03T03:02:47.321Z,8.90
2018-10-03T03:05:14.704Z,8.90
2018-10-03T03:07:42.144Z,9.00
2018-10-03T03:10:09.578Z,9.00
2018-10-03T03:12:36.997Z,9.00
2018-10-03T03:15:04.482Z,9.00
2018-10-03T03:17:31.939Z,9.00
2018-10-03T03:19:59.368Z,8.90
2018-10-03T03:22:26.713Z,8.90
2018-10-03T03:24:54.183Z,8.90
2018-10-03T03:27:21.598Z,8.90
2018-10-03T03:29:49.252Z,9.00
2018-10-03T03:32:16.634Z,9.00
2018-10-03T03:34:44.025Z,9.00
2018-10-03T03:37:11.497Z,9.00
2018-10-03T03:39:38.931Z,9.00
2018-10-03T03:42:06.827Z,9.00
2018-10-03T03:44:34.297Z,9.00
2018-10-03T03:47:01.888Z,9.10
2018-10-03T03:49:29.591Z,9.10
2018-10-03T03:51:57.165Z,9.10
2018-10-03T03:54:24.657Z,9.10
2018-10-03T03:56:52.188Z,9.10
2018-10-03T03:59:20.484Z,9.10
2018-10-03T04:01:48.351Z,9.00
2018-10-03T04:04:15.856Z,9.00
2018-10-03T04:06:50.754Z,8.80
2018-10-03T04:09:29.324Z,8.80
2018-10-03T04:12:07.730Z,8.80
2018-10-03T04:17:28.994Z,8.80
2018-10-03T04:20:16.097Z,8.80
2018-10-03T04:22:48.546Z,8.90
2018-10-03T04:25:16.182Z,9.00
2018-10-03T04:27:58.217Z,9.00
2018-10-03T04:30:31.504Z,9.00
2018-10-03T04:35:53.561Z,9.20
2018-10-03T04:38:21.032Z,9.20
2018-10-03T04:40:59.733Z,9.20
2018-10-03T04:43:53.822Z,9.20
2018-10-03T04:46:22.089Z,9.20
2018-10-03T04:48:59.892Z,9.20
2018-10-03T04:52:40.269Z,9.20
2018-10-03T04:58:40.479Z,9.20
2018-10-03T05:01:14.038Z,9.20
2018-10-03T06:01:52.486Z,9.60
2018-10-03T06:04:25.026Z,9.60
2018-10-03T06:06:55.562Z,9.60
2018-10-03T06:09:38.029Z,9.60
2018-10-03T06:12:10.901Z,9.70
2018-10-03T06:14:49.931Z,9.60
2018-10-03T06:17:26.962Z,9.60
2018-10-03T06:20:03.973Z,9.60
2018-10-03T06:22:42.249Z,9.60
2018-10-03T07:53:40.939Z,9.70
2018-10-03T07:56:31.448Z,13.20
2018-10-03T07:59:09.583Z,13.20
2018-10-03T08:02:27.252Z,12.90
2018-10-03T08:05:20.452Z,12.50
2018-10-03T08:16:02.829Z,12.00
2018-10-03T08:19:03.047Z,12.20
2018-10-03T08:21:43.853Z,12.50
2018-10-03T08:24:25.711Z,13.10
2018-10-03T08:27:05.084Z,13.80
2018-10-03T08:29:44.211Z,14.30
2018-10-03T12:07:35.690Z,15.00
2018-10-03T12:13:15.790Z,14.30
2018-10-03T12:15:52.222Z,14.10
2018-10-03T12:18:27.369Z,13.90
2018-10-03T18:15:15.871Z,10.80
2018-10-03T18:17:47.155Z,10.80
2018-10-03T18:26:12.020Z,10.70
2018-10-03T18:32:00.891Z,10.70
2018-10-03T18:34:29.297Z,10.60
2018-10-03T18:36:58.989Z,10.60
2018-10-03T18:39:27.433Z,10.50
2018-10-03T18:41:55.935Z,10.60
2018-10-03T18:44:35.444Z,10.60
2018-10-03T18:47:03.809Z,10.60
2018-10-03T18:52:10.918Z,10.50
2018-10-03T18:54:39.175Z,10.50
2018-10-03T18:59:52.130Z,10.40
2018-10-03T19:02:21.315Z,10.40
2018-10-03T19:04:50.368Z,10.40
2018-10-03T19:07:25.456Z,10.30
2018-10-03T19:10:04.842Z,10.30
2018-10-03T19:12:34.192Z,10.30
2018-10-03T19:15:03.436Z,10.30
2018-10-03T19:17:31.475Z,10.30
2018-10-03T19:19:59.622Z,10.40
2018-10-03T19:22:36.584Z,10.30
2018-10-03T19:25:05.246Z,10.30
2018-10-03T19:27:37.337Z,10.30
2018-10-03T19:30:07.544Z,10.40
2018-10-03T19:32:36.182Z,10.40
2018-10-03T19:35:10.165Z,10.40
2018-10-03T19:37:38.163Z,10.40
2018-10-03T19:40:06.179Z,10.40
2018-10-03T19:42:35.927Z,10.40
2018-10-03T19:45:06.435Z,10.40
2018-10-03T19:47:34.565Z,10.40
2018-10-03T19:50:03.675Z,10.50
2018-10-03T19:52:33.343Z,10.50
2018-10-03T19:55:01.126Z,10.50
2018-10-03T19:57:37.343Z,10.50
2018-10-03T20:00:05.208Z,10.50
2018-10-03T20:02:32.839Z,10.50
2018-10-03T20:05:01.500Z,10.50
2018-10-03T20:07:29.584Z,10.50
2018-10-03T20:09:58.671Z,10.50
2018-10-03T20:12:27.440Z,10.50
2018-10-03T20:14:56.879Z,10.50
2018-10-03T20:17:27.897Z,10.50
2018-10-03T20:19:56.501Z,10.60
2018-10-03T20:22:27.684Z,10.50
2018-10-03T20:24:55.898Z,10.50
2018-10-03T20:27:26.130Z,10.50
2018-10-03T20:29:54.261Z,10.50
2018-10-03T20:32:22.414Z,10.50
2018-10-03T20:34:53.533Z,10.40
2018-10-03T20:37:22.662Z,10.40
2018-10-03T20:39:51.769Z,10.40
2018-10-03T20:42:21.155Z,10.40
2018-10-03T20:44:50.205Z,10.40
2018-10-03T20:47:30.228Z,10.40
2018-10-03T20:50:06.451Z,10.30
2018-10-03T20:52:42.331Z,10.30
2018-10-03T20:55:10.724Z,10.30
2018-10-03T20:57:43.052Z,10.20
2018-10-03T21:00:11.910Z,10.20
2018-10-03T21:02:41.268Z,10.20
2018-10-03T21:05:11.684Z,10.20
2018-10-03T21:07:39.902Z,10.20
2018-10-03T21:10:09.683Z,10.20
2018-10-03T21:12:39.534Z,10.10
2018-10-03T21:15:08.223Z,10.10
2018-10-03T21:17:36.471Z,10.10
2018-10-03T21:20:05.945Z,10.10
2018-10-03T21:22:35.462Z,10.10
2018-10-03T21:25:04.165Z,10.10
2018-10-03T21:27:37.729Z,10.10
2018-10-03T21:30:06.832Z,10.10
2018-10-03T21:32:35.120Z,10.10
2018-10-03T21:35:04.038Z,10.10
2018-10-03T21:37:32.067Z,10.00
2018-10-03T21:40:04.147Z,10.00
2018-10-03T21:42:32.391Z,10.00
2018-10-03T21:45:00.219Z,9.90
2018-10-03T21:47:28.761Z,9.80
2018-10-03T21:49:56.676Z,9.80
2018-10-03T21:52:25.031Z,9.70
2018-10-03T21:54:53.405Z,9.70
2018-10-03T21:57:21.912Z,9.60
2018-10-03T21:59:49.707Z,9.50
2018-10-03T22:02:17.841Z,9.50
2018-10-03T22:04:47.615Z,9.40
2018-10-03T22:07:15.839Z,9.40
2018-10-03T22:09:44.303Z,9.30
2018-10-03T22:12:13.837Z,9.30
2018-10-03T22:14:42.627Z,9.30
2018-10-03T22:17:25.409Z,9.20
2018-10-03T22:19:54.478Z,9.20
2018-10-03T22:22:22.183Z,9.10
2018-10-03T22:24:50.491Z,9.10
2018-10-03T22:27:18.203Z,9.00
2018-10-03T22:29:46.712Z,9.00
2018-10-03T22:32:17.130Z,9.00
2018-10-03T22:34:48.325Z,9.00
2018-10-03T22:37:17.016Z,8.90
2018-10-03T22:39:46.719Z,8.90
2018-10-03T22:42:14.815Z,8.90
2018-10-03T22:44:44.974Z,8.80
2018-10-03T22:47:12.453Z,8.80
2018-10-03T22:49:41.141Z,8.80
2018-10-03T22:52:08.967Z,8.70
2018-10-03T22:54:36.665Z,8.70
2018-10-03T22:57:04.437Z,8.70
2018-10-03T22:59:32.285Z,8.70
2018-10-03T23:02:04.500Z,8.70
2018-10-03T23:04:32.592Z,8.60
2018-10-03T23:07:00.515Z,8.60
2018-10-03T23:09:28.519Z,8.60
2018-10-03T23:11:56.307Z,8.60
2018-10-03T23:14:23.813Z,8.60
2018-10-03T23:16:51.556Z,8.50
2018-10-03T23:19:19.312Z,8.50
2018-10-03T23:21:46.873Z,8.50
2018-10-03T23:24:14.456Z,8.50
2018-10-03T23:26:42.240Z,8.40
2018-10-03T23:29:10.270Z,8.50
2018-10-03T23:31:37.930Z,8.40
2018-10-03T23:34:05.858Z,8.40
2018-10-03T23:36:33.596Z,8.40
2018-10-03T23:39:01.366Z,8.40
2018-10-03T23:41:28.993Z,8.40
2018-10-03T23:43:57.044Z,8.40
2018-10-03T23:46:25.077Z,8.40
2018-10-03T23:48:53.003Z,8.30
2018-10-03T23:51:21.797Z,8.30
2018-10-03T23:53:49.546Z,8.30
2018-10-03T23:56:18.714Z,8.30
2018-10-03T23:58:46.481Z,8.30
